createdAt,value
2023-04-16T00:00:49.897Z,74.37
2023-04-16T00:02:06.354Z,74.69
2023-04-16T00:03:08.304Z,74.73
2023-04-16T00:04:10.043Z,74.50
2023-04-16T00:05:11.715Z,74.50
2023-04-16T00:06:13.253Z,74.81
2023-04-16T00:07:14.774Z,74.83
2023-04-16T00:08:16.301Z,74.65
2023-04-16T00:09:17.821Z,74.67
2023-04-16T00:10:19.353Z,74.62
2023-04-16T00:11:21.491Z,74.71
2023-04-16T00:12:23.010Z,74.67
2023-04-16T00:13:26.691Z,74.66
2023-04-16T00:14:29.092Z,74.56
2023-04-16T00:15:30.618Z,74.54
2023-04-16T00:16:32.639Z,74.42
2023-04-16T00:17:34.326Z,74.47
2023-04-16T00:18:35.970Z,74.32
2023-04-16T00:19:38.219Z,74.28
2023-04-16T00:20:39.668Z,74.24
2023-04-16T00:21:41.296Z,74.17
2023-04-16T00:22:42.978Z,74.14
2023-04-16T00:23:44.907Z,74.13
2023-04-16T00:24:46.307Z,74.11
2023-04-16T00:25:47.795Z,74.09
2023-04-16T00:26:49.505Z,74.05
2023-04-16T00:27:51.197Z,74.06
2023-04-16T00:28:52.656Z,74.09
2023-04-16T00:29:54.183Z,74.07
2023-04-16T00:30:55.809Z,74.05
2023-04-16T00:31:57.433Z,74.01
2023-04-16T00:32:59.683Z,74.06
2023-04-16T00:34:01.316Z,74.00
2023-04-16T00:35:03.126Z,74.06
2023-04-16T00:36:04.979Z,74.12
2023-04-16T00:37:06.557Z,74.11
2023-04-16T00:38:08.075Z,74.02
2023-04-16T00:39:09.858Z,73.96
2023-04-16T00:40:11.492Z,73.97
2023-04-16T00:41:13.114Z,74.15
2023-04-16T00:42:15.039Z,74.05
2023-04-16T00:43:24.892Z,73.96
2023-04-16T00:44:26.372Z,74.02
2023-04-16T00:45:28.874Z,73.99
2023-04-16T00:46:31.169Z,74.09
2023-04-16T00:47:33.248Z,74.08
2023-04-16T00:48:38.411Z,74.17
2023-04-16T00:49:40.377Z,74.17
2023-04-16T00:50:42.145Z,74.26
2023-04-16T00:51:43.718Z,74.19
2023-04-16T00:52:47.725Z,74.15
2023-04-16T00:53:50.324Z,74.33
2023-04-16T00:54:53.386Z,74.30
2023-04-16T00:55:55.592Z,74.26
2023-04-16T00:56:58.916Z,74.28
2023-04-16T00:58:00.396Z,74.29
2023-04-16T00:59:03.084Z,74.38
2023-04-16T01:00:05.652Z,74.36
2023-04-16T01:01:07.257Z,74.45
2023-04-16T01:02:08.960Z,74.51
2023-04-16T01:03:10.885Z,74.52
2023-04-16T01:04:12.830Z,74.55
2023-04-16T01:05:14.888Z,74.60
2023-04-16T01:06:17.801Z,74.64
2023-04-16T01:07:19.513Z,74.59
2023-04-16T01:08:21.446Z,74.56
2023-04-16T01:09:22.937Z,74.57
2023-04-16T01:10:24.422Z,74.60
2023-04-16T01:11:25.846Z,74.69
2023-04-16T01:12:27.269Z,74.76
2023-04-16T01:13:29.073Z,74.77
2023-04-16T01:14:35.611Z,74.79
2023-04-16T01:15:37.781Z,74.65
2023-04-16T01:16:39.338Z,74.64
2023-04-16T01:17:41.330Z,74.59
2023-04-16T01:18:43.127Z,74.78
2023-04-16T01:19:44.603Z,74.59
2023-04-16T01:20:47.764Z,74.60
2023-04-16T01:21:49.317Z,74.75
2023-04-16T01:22:50.807Z,74.66
2023-04-16T01:23:52.295Z,74.65
2023-04-16T01:24:53.790Z,74.70
2023-04-16T01:25:55.409Z,74.70
2023-04-16T01:26:58.588Z,74.71
2023-04-16T01:28:00.201Z,74.77
2023-04-16T01:29:02.345Z,74.82
2023-04-16T01:30:04.445Z,74.84
2023-04-16T01:33:10.504Z,74.91
2023-04-16T01:34:12.036Z,74.92
2023-04-16T01:35:13.571Z,74.91
2023-04-16T01:36:15.436Z,74.87
2023-04-16T01:37:16.999Z,74.80
2023-04-16T01:38:18.682Z,74.79
2023-04-16T01:39:20.397Z,74.90
2023-04-16T01:40:22.894Z,74.86
2023-04-16T01:41:24.424Z,74.88
2023-04-16T01:42:26.223Z,74.84
2023-04-16T01:43:27.782Z,74.82
2023-04-16T01:44:30.253Z,74.76
2023-04-16T01:45:33.799Z,74.69
2023-04-16T01:46:37.083Z,74.69
2023-04-16T01:47:38.749Z,74.69
2023-04-16T01:48:40.522Z,74.74
2023-04-16T01:49:44.914Z,74.84
2023-04-16T01:50:46.383Z,74.85
2023-04-16T01:51:47.846Z,74.89
2023-04-16T01:52:49.463Z,74.86
2023-04-16T01:53:51.079Z,74.89
2023-04-16T01:54:52.627Z,74.97
2023-04-16T01:55:54.116Z,75.02
2023-04-16T01:56:56.467Z,74.98
2023-04-16T01:57:57.951Z,74.99
2023-04-16T01:59:00.640Z,75.07
2023-04-16T02:00:08.190Z,75.14
2023-04-16T02:01:20.076Z,75.05
2023-04-16T02:02:27.442Z,75.13
2023-04-16T02:03:30.683Z,75.19
2023-04-16T02:04:32.810Z,75.23
2023-04-16T02:05:34.495Z,75.23
2023-04-16T02:06:36.024Z,75.38
2023-04-16T02:07:37.525Z,75.41
2023-04-16T02:08:39.034Z,75.43
2023-04-16T02:09:40.877Z,75.50
2023-04-16T02:10:46.170Z,75.50
2023-04-16T02:11:47.815Z,75.58
2023-04-16T02:12:49.417Z,75.71
2023-04-16T02:13:51.118Z,75.81
2023-04-16T02:14:53.661Z,75.98
2023-04-16T02:15:55.414Z,76.00
2023-04-16T02:17:20.563Z,75.71
2023-04-16T02:18:25.564Z,75.85
2023-04-16T02:19:28.303Z,75.76
2023-04-16T02:20:30.257Z,75.81
2023-04-16T02:21:34.464Z,75.85
2023-04-16T02:22:36.427Z,75.98
2023-04-16T02:23:40.441Z,76.28
2023-04-16T02:24:42.409Z,76.11
2023-04-16T02:25:45.960Z,76.01
2023-04-16T02:26:47.513Z,76.25
2023-04-16T02:27:50.528Z,76.13
2023-04-16T02:29:03.620Z,76.11
2023-04-16T02:30:11.822Z,76.24
2023-04-16T02:31:18.909Z,76.15
2023-04-16T02:32:21.702Z,76.27
2023-04-16T02:33:25.753Z,76.47
2023-04-16T02:34:33.012Z,76.21
2023-04-16T02:35:35.490Z,76.19
2023-04-16T02:36:37.543Z,76.44
2023-04-16T02:37:40.205Z,76.30
2023-04-16T02:38:41.736Z,76.63
2023-04-16T02:39:44.436Z,76.38
2023-04-16T02:40:46.005Z,76.48
2023-04-16T02:41:47.564Z,76.46
2023-04-16T02:42:49.078Z,76.40
2023-04-16T02:43:50.584Z,76.54
2023-04-16T02:44:52.144Z,76.52
2023-04-16T02:45:53.730Z,76.75
2023-04-16T02:46:55.206Z,76.57
2023-04-16T02:47:56.740Z,76.59
2023-04-16T02:48:58.195Z,76.50
2023-04-16T02:49:59.748Z,76.52
2023-04-16T02:51:01.282Z,76.53
2023-04-16T02:52:03.403Z,76.50
2023-04-16T02:53:06.010Z,76.52
2023-04-16T02:54:07.454Z,76.58
2023-04-16T02:55:10.227Z,76.66
2023-04-16T02:56:12.389Z,76.81
2023-04-16T02:57:14.170Z,76.73
2023-04-16T02:58:15.903Z,76.73
2023-04-16T02:59:17.521Z,76.86
2023-04-16T03:00:19.108Z,76.72
2023-04-16T03:01:20.529Z,76.78
2023-04-16T03:02:22.209Z,76.78
2023-04-16T03:03:23.836Z,77.09
2023-04-16T03:04:25.532Z,76.86
2023-04-16T03:05:27.047Z,76.99
2023-04-16T03:06:28.520Z,76.90
2023-04-16T03:07:30.144Z,76.93
2023-04-16T03:08:31.584Z,76.98
2023-04-16T03:09:33.084Z,77.16
2023-04-16T03:10:35.676Z,77.04
2023-04-16T03:11:37.142Z,77.03
2023-04-16T03:12:39.554Z,77.07
2023-04-16T03:13:41.531Z,77.12
2023-04-16T03:14:43.317Z,77.28
2023-04-16T03:15:49.194Z,77.33
2023-04-16T03:16:50.677Z,77.46
2023-04-16T03:17:53.266Z,77.23
2023-04-16T03:18:54.703Z,77.25
2023-04-16T03:19:56.402Z,77.22
2023-04-16T03:20:57.845Z,77.28
2023-04-16T03:21:59.297Z,77.31
2023-04-16T03:23:00.871Z,77.32
2023-04-16T03:24:02.926Z,77.37
2023-04-16T03:25:04.699Z,77.33
2023-04-16T03:26:06.296Z,77.44
2023-04-16T03:27:07.992Z,77.46
2023-04-16T03:28:10.074Z,77.43
2023-04-16T03:29:12.108Z,77.42
2023-04-16T03:30:14.821Z,77.46
2023-04-16T03:31:16.444Z,77.47
2023-04-16T03:32:18.478Z,77.45
2023-04-16T03:33:20.277Z,77.44
2023-04-16T03:34:21.963Z,77.67
2023-04-16T03:35:23.473Z,77.61
2023-04-16T03:36:26.611Z,77.43
2023-04-16T03:37:28.175Z,77.42
2023-04-16T03:38:30.283Z,77.46
2023-04-16T03:39:33.670Z,77.43
2023-04-16T03:40:35.343Z,77.57
2023-04-16T03:41:36.851Z,77.54
2023-04-16T03:42:38.329Z,77.47
2023-04-16T03:43:40.529Z,77.45
2023-04-16T03:44:42.562Z,77.65
2023-04-16T03:45:45.241Z,77.54
2023-04-16T03:46:47.384Z,77.71
2023-04-16T03:47:51.933Z,77.67
2023-04-16T03:48:55.169Z,77.44
2023-04-16T03:49:56.948Z,77.48
2023-04-16T03:50:58.617Z,77.47
2023-04-16T03:52:01.006Z,77.47
2023-04-16T03:53:02.541Z,77.54
2023-04-16T03:54:04.606Z,77.56
2023-04-16T03:55:07.307Z,77.55
2023-04-16T03:56:09.348Z,77.58
2023-04-16T03:57:10.768Z,77.86
2023-04-16T03:58:12.262Z,77.77
2023-04-16T03:59:13.946Z,77.84
2023-04-16T04:00:15.865Z,77.79
2023-04-16T04:01:25.077Z,77.63
2023-04-16T04:02:27.314Z,77.76
2023-04-16T04:03:29.474Z,78.05
2023-04-16T04:04:31.475Z,77.84
2023-04-16T04:05:40.426Z,77.84
2023-04-16T04:06:45.613Z,78.03
2023-04-16T04:07:47.437Z,77.71
2023-04-16T04:08:49.050Z,77.78
2023-04-16T04:09:51.185Z,77.68
2023-04-16T04:10:52.712Z,78.02
2023-04-16T04:11:55.577Z,77.94
2023-04-16T04:12:57.297Z,77.73
2023-04-16T04:13:58.899Z,77.81
2023-04-16T04:15:00.603Z,77.58
2023-04-16T04:16:02.230Z,77.56
2023-04-16T04:17:04.180Z,77.68
2023-04-16T04:18:05.859Z,77.66
2023-04-16T04:19:07.664Z,77.75
2023-04-16T04:20:10.229Z,77.79
2023-04-16T04:21:12.085Z,77.75
2023-04-16T04:22:13.620Z,77.94
2023-04-16T04:23:15.569Z,77.99
2023-04-16T04:24:16.999Z,77.97
2023-04-16T04:25:21.082Z,77.83
2023-04-16T04:26:22.810Z,77.92
2023-04-16T04:27:24.365Z,78.09
2023-04-16T04:28:25.889Z,77.94
2023-04-16T04:29:27.302Z,78.02
2023-04-16T04:30:28.964Z,78.06
2023-04-16T04:31:30.609Z,77.90
2023-04-16T04:32:32.130Z,77.90
2023-04-16T04:33:34.798Z,77.80
2023-04-16T04:34:36.843Z,77.86
2023-04-16T04:35:38.786Z,77.78
2023-04-16T04:36:40.407Z,77.58
2023-04-16T04:37:42.002Z,77.62
2023-04-16T04:38:49.321Z,77.80
2023-04-16T04:39:51.281Z,77.71
2023-04-16T04:40:53.236Z,77.75
2023-04-16T04:41:56.795Z,77.78
2023-04-16T04:42:58.385Z,77.80
2023-04-16T04:43:59.977Z,77.80
2023-04-16T04:45:01.419Z,77.69
2023-04-16T04:46:04.222Z,77.53
2023-04-16T04:47:06.291Z,77.60
2023-04-16T04:48:07.852Z,77.50
2023-04-16T04:49:09.906Z,77.44
2023-04-16T04:50:11.640Z,77.40
2023-04-16T04:51:13.119Z,77.45
2023-04-16T04:52:16.220Z,77.39
2023-04-16T04:53:17.809Z,77.44
2023-04-16T04:54:19.373Z,77.49
2023-04-16T04:55:20.846Z,77.47
2023-04-16T04:56:22.644Z,77.50
2023-04-16T04:57:24.101Z,77.40
2023-04-16T04:58:28.030Z,77.29
2023-04-16T04:59:29.541Z,77.35
2023-04-16T05:00:32.332Z,77.30
2023-04-16T05:01:34.886Z,77.38
2023-04-16T05:02:36.832Z,77.31
2023-04-16T05:03:38.708Z,77.31
2023-04-16T05:04:40.599Z,77.27
2023-04-16T05:05:42.189Z,77.35
2023-04-16T05:06:43.967Z,77.43
2023-04-16T05:07:45.504Z,77.54
2023-04-16T05:08:47.015Z,77.47
2023-04-16T05:09:48.546Z,77.49
2023-04-16T05:10:50.086Z,77.53
2023-04-16T05:11:51.703Z,77.63
2023-04-16T05:12:53.208Z,77.63
2023-04-16T05:13:54.727Z,77.53
2023-04-16T05:14:56.154Z,77.66
2023-04-16T05:15:58.079Z,77.48
2023-04-16T05:16:59.734Z,77.56
2023-04-16T05:18:01.419Z,77.42
2023-04-16T05:19:03.608Z,77.49
2023-04-16T05:20:06.326Z,77.25
2023-04-16T05:21:07.850Z,77.24
2023-04-16T05:22:09.598Z,77.39
2023-04-16T05:23:11.110Z,77.35
2023-04-16T05:24:14.785Z,77.29
2023-04-16T05:25:16.836Z,77.34
2023-04-16T05:26:18.417Z,77.36
2023-04-16T05:27:20.337Z,77.29
2023-04-16T05:28:21.888Z,77.27
2023-04-16T05:29:23.431Z,77.20
2023-04-16T05:30:24.968Z,77.17
2023-04-16T05:31:26.476Z,77.26
2023-04-16T05:32:28.086Z,77.24
2023-04-16T05:33:29.810Z,77.22
2023-04-16T05:34:31.263Z,77.19
2023-04-16T05:35:33.786Z,77.17
2023-04-16T05:36:35.229Z,77.11
2023-04-16T05:37:37.026Z,77.07
2023-04-16T05:38:38.484Z,77.06
2023-04-16T05:39:40.032Z,77.11
2023-04-16T05:40:41.519Z,77.02
2023-04-16T05:41:43.128Z,76.96
2023-04-16T05:42:44.828Z,76.97
2023-04-16T05:43:46.248Z,77.02
2023-04-16T05:44:47.739Z,77.00
2023-04-16T05:45:49.210Z,77.01
2023-04-16T05:46:51.185Z,77.04
2023-04-16T05:47:52.838Z,77.04
2023-04-16T05:48:54.403Z,77.22
2023-04-16T05:49:55.840Z,77.03
2023-04-16T05:50:57.339Z,77.03
2023-04-16T05:51:58.944Z,77.04
2023-04-16T05:53:02.584Z,77.01
2023-04-16T05:54:04.080Z,77.01
2023-04-16T05:55:06.573Z,76.99
2023-04-16T05:56:08.227Z,77.02
2023-04-16T05:57:10.056Z,77.10
2023-04-16T05:58:11.636Z,77.07
2023-04-16T05:59:13.122Z,77.14
2023-04-16T06:00:14.766Z,77.22
2023-04-16T06:01:17.650Z,77.12
2023-04-16T06:02:19.559Z,77.18
2023-04-16T06:03:21.161Z,77.18
2023-04-16T06:04:22.847Z,77.21
2023-04-16T06:05:26.306Z,77.31
2023-04-16T06:06:27.896Z,77.20
2023-04-16T06:07:29.924Z,77.14
2023-04-16T06:08:31.618Z,77.17
2023-04-16T06:09:33.161Z,77.06
2023-04-16T06:10:34.613Z,77.23
2023-04-16T06:11:36.544Z,77.12
2023-04-16T06:12:38.095Z,77.06
2023-04-16T06:13:39.693Z,76.97
2023-04-16T06:14:41.291Z,77.06
2023-04-16T06:15:42.952Z,77.15
2023-04-16T06:16:44.928Z,77.10
2023-04-16T06:17:46.757Z,77.15
2023-04-16T06:18:48.402Z,77.10
2023-04-16T06:19:49.984Z,77.10
2023-04-16T06:20:51.522Z,77.07
2023-04-16T06:21:53.520Z,77.05
2023-04-16T06:22:55.574Z,77.09
2023-04-16T06:23:57.304Z,77.02
2023-04-16T06:24:58.830Z,77.06
2023-04-16T06:26:00.517Z,77.04
2023-04-16T06:27:02.456Z,77.00
2023-04-16T06:28:04.106Z,76.97
2023-04-16T06:29:05.658Z,77.03
2023-04-16T06:30:12.615Z,76.99
2023-04-16T06:31:14.099Z,76.87
2023-04-16T06:32:16.715Z,76.77
2023-04-16T06:33:18.561Z,76.76
2023-04-16T06:34:20.325Z,76.71
2023-04-16T06:35:22.198Z,76.66
2023-04-16T06:36:23.817Z,76.65
2023-04-16T06:37:25.388Z,76.72
2023-04-16T06:38:27.044Z,76.76
2023-04-16T06:39:28.571Z,76.75
2023-04-16T06:40:30.124Z,76.72
2023-04-16T06:41:31.693Z,76.58
2023-04-16T06:42:33.237Z,76.64
2023-04-16T06:43:35.189Z,76.61
2023-04-16T06:44:36.665Z,76.57
2023-04-16T06:45:43.637Z,76.56
2023-04-16T06:46:45.505Z,76.58
2023-04-16T06:47:47.447Z,76.58
2023-04-16T06:48:48.926Z,76.59
2023-04-16T06:49:50.478Z,76.54
2023-04-16T06:50:51.994Z,76.54
2023-04-16T06:51:53.541Z,76.57
2023-04-16T06:52:55.532Z,76.53
2023-04-16T06:53:57.045Z,76.59
2023-04-16T06:54:58.648Z,76.58
2023-04-16T06:56:00.102Z,76.67
2023-04-16T06:57:01.599Z,76.70
2023-04-16T06:58:03.096Z,76.63
2023-04-16T06:59:04.870Z,76.55
2023-04-16T07:00:07.333Z,76.54
2023-04-16T07:01:09.525Z,76.57
2023-04-16T07:02:11.623Z,76.65
2023-04-16T07:03:13.848Z,76.69
2023-04-16T07:04:15.799Z,76.72
2023-04-16T07:05:17.364Z,76.69
2023-04-16T07:06:19.036Z,76.52
2023-04-16T07:07:20.794Z,76.51
2023-04-16T07:08:22.257Z,76.52
2023-04-16T07:09:24.357Z,76.48
2023-04-16T07:10:26.028Z,76.47
2023-04-16T07:11:28.230Z,76.47
2023-04-16T07:12:30.810Z,76.38
2023-04-16T07:13:32.608Z,76.33
2023-04-16T07:14:34.468Z,76.29
2023-04-16T07:15:36.208Z,76.30
2023-04-16T07:16:37.974Z,76.31
2023-04-16T07:17:39.841Z,76.10
2023-04-16T07:18:41.724Z,76.27
2023-04-16T07:19:43.680Z,76.30
2023-04-16T07:20:45.224Z,76.38
2023-04-16T07:21:46.673Z,76.42
2023-04-16T07:22:48.984Z,76.42
2023-04-16T07:23:50.513Z,76.35
2023-04-16T07:24:52.024Z,76.51
2023-04-16T07:25:53.751Z,76.30
2023-04-16T07:26:55.217Z,76.19
2023-04-16T07:27:56.942Z,76.14
2023-04-16T07:28:58.871Z,76.15
2023-04-16T07:30:00.953Z,76.12
2023-04-16T07:31:02.743Z,76.22
2023-04-16T07:32:04.713Z,76.09
2023-04-16T07:33:06.507Z,75.87
2023-04-16T07:34:08.181Z,75.96
2023-04-16T07:35:09.797Z,76.08
2023-04-16T07:36:11.700Z,76.12
2023-04-16T07:37:13.200Z,76.18
2023-04-16T07:38:15.644Z,76.03
2023-04-16T07:39:17.185Z,75.92
2023-04-16T07:40:18.784Z,75.98
2023-04-16T07:41:20.733Z,75.66
2023-04-16T07:42:22.661Z,75.61
2023-04-16T07:43:24.102Z,75.24
2023-04-16T07:44:26.076Z,75.50
2023-04-16T07:45:27.874Z,75.66
2023-04-16T07:46:39.332Z,75.64
2023-04-16T07:47:45.504Z,75.62
2023-04-16T07:48:47.195Z,75.65
2023-04-16T07:49:50.129Z,75.55
2023-04-16T07:50:51.900Z,75.47
2023-04-16T07:51:53.438Z,75.30
2023-04-16T07:52:55.024Z,75.25
2023-04-16T07:53:56.516Z,75.07
2023-04-16T07:54:57.940Z,74.95
2023-04-16T07:55:59.497Z,74.94
2023-04-16T07:57:01.370Z,74.90
2023-04-16T07:58:02.825Z,74.92
2023-04-16T07:59:18.477Z,74.82
2023-04-16T08:00:23.217Z,74.84
2023-04-16T08:01:25.350Z,74.84
2023-04-16T08:02:27.434Z,74.80
2023-04-16T08:03:29.605Z,74.64
2023-04-16T08:04:31.684Z,74.37
2023-04-16T08:05:33.584Z,74.24
2023-04-16T08:06:35.550Z,73.96
2023-04-16T08:07:37.751Z,73.75
2023-04-16T08:08:39.230Z,73.51
2023-04-16T08:09:49.046Z,73.49
2023-04-16T08:10:55.071Z,73.34
2023-04-16T08:11:56.885Z,73.34
2023-04-16T08:13:00.903Z,73.22
2023-04-16T08:14:02.789Z,73.15
2023-04-16T08:15:05.305Z,72.93
2023-04-16T08:16:07.327Z,72.92
2023-04-16T08:17:09.417Z,73.11
2023-04-16T08:18:14.883Z,73.00
2023-04-16T08:19:16.828Z,72.69
2023-04-16T08:20:19.328Z,72.73
2023-04-16T08:21:21.338Z,72.42
2023-04-16T08:22:23.247Z,72.03
2023-04-16T08:23:25.479Z,72.39
2023-04-16T08:24:27.292Z,72.44
2023-04-16T08:25:28.990Z,72.15
2023-04-16T08:26:30.814Z,71.71
2023-04-16T08:27:32.505Z,71.97
2023-04-16T08:28:34.390Z,71.70
2023-04-16T08:29:35.995Z,71.59
2023-04-16T08:30:37.621Z,71.64
2023-04-16T08:31:39.438Z,71.42
2023-04-16T08:32:42.045Z,71.06
2023-04-16T08:33:43.820Z,71.00
2023-04-16T08:34:45.673Z,70.80
2023-04-16T08:35:47.310Z,70.80
2023-04-16T08:36:48.894Z,70.76
2023-04-16T08:37:50.730Z,70.40
2023-04-16T08:38:52.681Z,69.83
2023-04-16T08:39:54.382Z,70.11
2023-04-16T08:41:02.175Z,70.03
2023-04-16T08:42:05.689Z,70.45
2023-04-16T08:43:14.451Z,70.27
2023-04-16T08:44:25.708Z,70.04
2023-04-16T08:45:27.531Z,69.59
2023-04-16T08:46:29.484Z,70.04
2023-04-16T08:47:34.335Z,70.05
2023-04-16T08:48:36.900Z,70.22
2023-04-16T08:49:44.310Z,69.87
2023-04-16T08:50:46.513Z,70.14
2023-04-16T08:51:52.171Z,69.87
2023-04-16T08:52:58.521Z,69.75
2023-04-16T08:54:04.092Z,69.40
2023-04-16T08:55:12.775Z,68.70
2023-04-16T08:56:16.277Z,68.59
2023-04-16T08:57:20.343Z,68.30
2023-04-16T08:58:22.159Z,68.91
2023-04-16T08:59:25.455Z,68.96
2023-04-16T09:00:30.948Z,68.89
2023-04-16T09:01:33.328Z,69.16
2023-04-16T09:02:35.445Z,69.18
2023-04-16T09:03:37.415Z,68.80
2023-04-16T09:04:40.763Z,67.45
2023-04-16T09:05:43.403Z,67.73
2023-04-16T09:06:45.620Z,68.43
2023-04-16T09:07:47.896Z,68.32
2023-04-16T09:08:50.282Z,68.21
2023-04-16T09:09:53.109Z,67.59
2023-04-16T09:10:58.815Z,67.65
2023-04-16T09:12:00.565Z,67.75
2023-04-16T09:13:02.171Z,67.84
2023-04-16T09:14:04.279Z,67.11
2023-04-16T09:15:06.665Z,67.53
2023-04-16T09:16:09.187Z,67.67
2023-04-16T09:17:13.526Z,67.17
2023-04-16T09:18:15.163Z,67.13
2023-04-16T09:19:16.787Z,66.12
2023-04-16T09:20:19.744Z,66.66
2023-04-16T09:21:24.022Z,65.71
2023-04-16T09:22:25.664Z,66.11
2023-04-16T09:23:27.722Z,66.25
2023-04-16T09:24:29.406Z,66.16
2023-04-16T09:25:34.440Z,65.93
2023-04-16T09:26:36.264Z,66.07
2023-04-16T09:27:38.746Z,65.71
2023-04-16T09:28:45.253Z,65.07
2023-04-16T09:29:46.777Z,65.46
2023-04-16T09:30:48.374Z,65.83
2023-04-16T09:32:02.881Z,66.05
2023-04-16T09:33:23.765Z,66.12
2023-04-16T09:34:25.289Z,65.99
2023-04-16T09:35:26.771Z,66.19
2023-04-16T09:36:28.679Z,66.17
2023-04-16T09:37:30.947Z,65.38
2023-04-16T09:38:49.422Z,65.81
2023-04-16T09:39:57.949Z,65.65
2023-04-16T09:41:07.680Z,65.91
2023-04-16T09:42:10.004Z,65.89
2023-04-16T09:43:15.752Z,65.93
2023-04-16T09:44:17.215Z,66.26
2023-04-16T09:45:18.793Z,66.02
2023-04-16T09:46:20.477Z,66.08
2023-04-16T09:47:23.350Z,66.04
2023-04-16T09:48:29.413Z,66.04
2023-04-16T09:49:34.379Z,66.22
2023-04-16T09:50:35.784Z,65.71
2023-04-16T09:51:38.068Z,65.35
2023-04-16T09:52:39.620Z,65.85
2023-04-16T09:53:41.445Z,65.62
2023-04-16T09:54:50.687Z,65.35
2023-04-16T09:55:56.304Z,66.30
2023-04-16T09:57:00.615Z,66.03
2023-04-16T09:58:02.167Z,65.87
2023-04-16T09:59:03.745Z,65.78
2023-04-16T10:00:08.401Z,65.05
2023-04-16T10:01:11.896Z,65.25
2023-04-16T10:02:14.589Z,65.25
2023-04-16T10:03:17.830Z,65.49
2023-04-16T10:04:21.611Z,65.45
2023-04-16T10:05:25.626Z,64.71
2023-04-16T10:06:28.822Z,65.19
2023-04-16T10:07:34.922Z,65.37
2023-04-16T10:08:36.535Z,65.37
2023-04-16T10:09:38.702Z,65.23
2023-04-16T10:10:40.924Z,65.16
2023-04-16T10:11:42.537Z,65.18
2023-04-16T10:12:44.094Z,65.18
2023-04-16T10:13:45.764Z,65.07
2023-04-16T10:14:48.938Z,65.61
2023-04-16T10:15:51.855Z,65.46
2023-04-16T10:16:55.447Z,65.39
2023-04-16T10:17:57.541Z,65.26
2023-04-16T10:18:59.565Z,64.94
2023-04-16T10:20:02.621Z,65.60
2023-04-16T10:21:05.592Z,65.73
2023-04-16T10:22:08.704Z,65.05
2023-04-16T10:23:11.670Z,65.11
2023-04-16T10:24:16.062Z,65.35
2023-04-16T10:25:17.981Z,64.15
2023-04-16T10:26:20.702Z,63.06
2023-04-16T10:27:22.271Z,62.86
2023-04-16T10:28:24.482Z,62.80
2023-04-16T10:29:31.053Z,62.71
2023-04-16T10:30:33.250Z,62.40
2023-04-16T10:31:37.988Z,61.23
2023-04-16T10:32:40.934Z,62.44
2023-04-16T10:33:43.655Z,63.12
2023-04-16T10:34:45.718Z,62.54
2023-04-16T10:35:57.613Z,62.13
2023-04-16T10:37:06.657Z,62.11
2023-04-16T10:38:27.623Z,62.75
2023-04-16T10:39:29.179Z,61.83
2023-04-16T10:40:30.886Z,61.99
2023-04-16T10:41:33.724Z,61.51
2023-04-16T10:42:37.486Z,61.44
2023-04-16T10:43:47.411Z,61.02
2023-04-16T10:44:49.016Z,60.29
2023-04-16T10:45:50.793Z,59.52
2023-04-16T10:46:54.777Z,59.73
2023-04-16T10:47:58.057Z,59.86
2023-04-16T10:49:01.613Z,59.54
2023-04-16T10:50:15.590Z,61.15
2023-04-16T10:51:27.974Z,60.56
2023-04-16T10:52:29.418Z,62.22
2023-04-16T10:53:30.838Z,63.12
2023-04-16T10:54:35.759Z,62.76
2023-04-16T10:55:40.164Z,62.73
2023-04-16T10:56:45.066Z,61.98
2023-04-16T10:57:49.168Z,61.87
2023-04-16T10:58:53.234Z,61.27
2023-04-16T10:59:54.699Z,61.54
2023-04-16T11:01:00.558Z,61.40
2023-04-16T11:02:08.682Z,61.50
2023-04-16T11:03:11.101Z,61.73
2023-04-16T11:04:25.093Z,61.51
2023-04-16T11:05:46.282Z,61.60
2023-04-16T11:07:03.624Z,62.00
2023-04-16T11:08:13.781Z,62.09
2023-04-16T11:09:50.948Z,62.42
2023-04-16T11:10:53.665Z,62.18
2023-04-16T11:11:55.714Z,61.94
2023-04-16T11:12:57.381Z,61.85
2023-04-16T11:14:00.584Z,61.20
2023-04-16T11:15:12.762Z,60.36
2023-04-16T11:16:15.815Z,60.13
2023-04-16T11:17:18.638Z,59.89
2023-04-16T11:18:20.133Z,60.22
2023-04-16T11:19:22.114Z,59.89
2023-04-16T11:20:26.021Z,59.89
2023-04-16T11:21:28.075Z,60.91
2023-04-16T11:22:29.663Z,60.99
2023-04-16T11:23:45.049Z,61.95
2023-04-16T11:24:47.239Z,62.35
2023-04-16T11:25:55.196Z,61.99
2023-04-16T12:11:16.110Z,59.68
2023-04-16T12:12:31.627Z,59.87
2023-04-16T12:13:39.126Z,60.80
2023-04-16T12:14:49.686Z,61.09
2023-04-16T12:15:53.007Z,61.24
2023-04-16T12:16:55.253Z,61.30
2023-04-16T12:18:07.508Z,62.12
2023-04-16T12:19:11.914Z,61.72
2023-04-16T12:20:15.132Z,62.40
2023-04-16T12:21:16.930Z,62.32
2023-04-16T12:22:36.059Z,62.54
2023-04-16T12:23:38.736Z,61.79
2023-04-16T12:24:40.144Z,61.89
2023-04-16T12:25:42.411Z,61.98
2023-04-16T12:26:46.548Z,61.34
2023-04-16T12:27:55.269Z,60.91
2023-04-16T12:29:14.150Z,60.89
2023-04-16T12:30:17.511Z,60.70
2023-04-16T12:31:36.606Z,60.60
2023-04-16T12:32:41.061Z,60.71
2023-04-16T12:33:42.485Z,61.11
2023-04-16T12:34:50.980Z,61.19
2023-04-16T12:35:52.483Z,61.56
2023-04-16T12:37:08.885Z,61.49
2023-04-16T12:38:11.356Z,61.86
2023-04-16T12:39:14.557Z,61.95
2023-04-16T12:40:16.253Z,61.77
2023-04-16T12:41:17.711Z,61.75
2023-04-16T12:42:20.741Z,61.39
2023-04-16T12:43:22.807Z,61.39
2023-04-16T12:44:27.293Z,61.10
2023-04-16T12:45:28.933Z,61.12
2023-04-16T12:46:30.728Z,61.37
2023-04-16T12:47:32.598Z,61.72
2023-04-16T12:48:34.100Z,61.66
2023-04-16T12:49:37.720Z,61.56
2023-04-16T12:50:39.551Z,61.33
2023-04-16T12:51:41.541Z,61.07
2023-04-16T12:52:43.199Z,60.97
2023-04-16T12:53:44.694Z,60.86
2023-04-16T12:54:46.383Z,61.06
2023-04-16T12:55:47.964Z,61.06
2023-04-16T12:56:49.493Z,61.15
2023-04-16T12:57:54.373Z,60.75
2023-04-16T12:58:55.918Z,60.18
2023-04-16T12:59:58.990Z,59.75
2023-04-16T13:01:00.394Z,59.62
2023-04-16T13:02:02.202Z,59.39
2023-04-16T13:03:04.092Z,59.21
2023-04-16T13:04:06.846Z,59.26
2023-04-16T13:05:09.245Z,59.40
2023-04-16T13:06:12.300Z,59.52
2023-04-16T13:07:13.751Z,59.44
2023-04-16T13:08:15.869Z,59.87
2023-04-16T13:09:19.589Z,60.13
2023-04-16T13:10:21.568Z,60.91
2023-04-16T13:11:23.171Z,61.22
2023-04-16T13:12:24.677Z,61.81
2023-04-16T13:13:26.142Z,61.98
2023-04-16T13:14:27.611Z,62.33
2023-04-16T13:15:29.367Z,62.19
2023-04-16T13:16:30.811Z,62.76
2023-04-16T13:17:32.454Z,62.88
2023-04-16T13:18:39.525Z,62.82
2023-04-16T13:19:41.005Z,62.21
2023-04-16T13:20:43.167Z,61.55
2023-04-16T13:21:44.802Z,61.18
2023-04-16T13:22:46.423Z,61.36
2023-04-16T13:23:48.144Z,61.25
2023-04-16T13:24:49.760Z,60.54
2023-04-16T13:25:51.499Z,60.03
2023-04-16T13:26:53.455Z,59.61
2023-04-16T13:27:55.026Z,59.42
2023-04-16T13:28:57.054Z,59.53
2023-04-16T13:29:58.762Z,59.28
2023-04-16T13:31:04.283Z,59.28
2023-04-16T13:32:07.529Z,59.83
2023-04-16T13:33:10.267Z,59.60
2023-04-16T13:34:12.154Z,59.76
2023-04-16T13:35:13.569Z,59.66
2023-04-16T13:36:15.436Z,59.50
2023-04-16T13:37:17.102Z,59.81
2023-04-16T13:38:18.568Z,59.84
2023-04-16T13:39:20.493Z,59.86
2023-04-16T13:40:21.972Z,60.41
2023-04-16T13:41:23.970Z,60.63
2023-04-16T13:42:26.272Z,61.06
2023-04-16T13:43:27.799Z,61.09
2023-04-16T13:44:29.373Z,61.77
2023-04-16T13:45:31.128Z,61.19
2023-04-16T13:46:33.131Z,62.20
2023-04-16T13:47:36.028Z,62.35
2023-04-16T13:48:38.382Z,62.22
2023-04-16T13:49:40.043Z,62.72
2023-04-16T13:50:41.836Z,62.52
2023-04-16T13:51:46.737Z,61.88
2023-04-16T13:52:48.798Z,61.27
2023-04-16T13:53:50.321Z,61.30
2023-04-16T13:54:51.833Z,61.34
2023-04-16T13:55:56.664Z,61.18
2023-04-16T13:56:58.871Z,60.88
2023-04-16T13:58:00.726Z,60.98
2023-04-16T13:59:02.616Z,61.01
2023-04-16T14:00:04.847Z,60.90
2023-04-16T14:01:06.895Z,60.82
2023-04-16T14:02:09.993Z,60.47
2023-04-16T14:03:12.019Z,60.71
2023-04-16T14:04:13.704Z,60.37
2023-04-16T14:05:15.367Z,59.89
2023-04-16T14:06:17.502Z,59.62
2023-04-16T14:07:21.876Z,59.63
2023-04-16T14:08:23.323Z,59.51
2023-04-16T14:09:24.850Z,59.01
2023-04-16T14:10:26.353Z,59.35
2023-04-16T14:11:28.007Z,59.46
2023-04-16T14:12:30.988Z,59.59
2023-04-16T14:13:32.581Z,60.03
2023-04-16T14:14:34.778Z,60.20
2023-04-16T14:15:36.311Z,60.73
2023-04-16T14:16:37.779Z,61.32